This is the latest recevied weather packets stored in our database for station/object DB0MOD. If no packets are shown the sender has not sent any weather packets the latest 1 day(s).
| Time | Temp. | Humidity | Pressure | Rain* | Wind** | Luminosity | Snow |
|---|---|---|---|---|---|---|---|
| 1777982644 | 15° C | 10% | 1008.4 hPa | 0 mm | 0 m/s | - | - |
| 1777982344 | 15° C | 10% | 1008.4 hPa | 0 mm | 0 m/s | - | - |
| 1777982044 | 15° C | 10% | 1008.4 hPa | 0 mm | 0 m/s | - | - |
| 1777981744 | 15.56° C | 10% | 1008.6 hPa | 0 mm | 0 m/s | - | - |
| 1777981444 | 16.11° C | 12% | 1008.6 hPa | 0 mm | 0 m/s | - | - |
| 1777981144 | 17.22° C | 25% | 1008.7 hPa | 0 mm | 0 m/s | - | - |
| 1777980844 | 17.78° C | 32% | 1008.8 hPa | 0 mm | 0 m/s | - | - |
| 1777980544 | 18.33° C | 35% | 1008.8 hPa | 0 mm | 0 m/s | - | - |
| 1777980244 | 18.89° C | 35% | 1008.8 hPa | 0 mm | 0 m/s | - | - |
| 1777979944 | 19.44° C | 36% | 1008.7 hPa | 0 mm | 0 m/s | - | - |
| 1777979644 | 19.44° C | 37% | 1008.8 hPa | 0 mm | 0 m/s | - | - |
| 1777979344 | 20° C | 37% | 1008.9 hPa | 0 mm | 0 m/s | - | - |
| 1777979079 | 19.44° C | 36% | 1008.8 hPa | 0 mm | 0 m/s | - | - |
| 1777979044 | 19.44° C | 36% | 1008.8 hPa | 0 mm | 0 m/s | - | - |
| 1777978744 | 19.44° C | 33% | 1008.6 hPa | 0 mm | 0 m/s | - | - |
| 1777978444 | 20° C | 36% | 1008.7 hPa | 0 mm | 0 m/s | - | - |
| 1777978144 | 20° C | 34% | 1008.7 hPa | 0 mm | 0 m/s | - | - |
| 1777977844 | 20° C | 30% | 1008.7 hPa | 0 mm | 0 m/s | - | - |
| 1777977544 | 20.56° C | 27% | 1008.7 hPa | 0 mm | 0 m/s | - | - |
| 1777977244 | 20.56° C | 27% | 1008.5 hPa | 0 mm | 0 m/s | - | - |
| 1777976944 | 20.56° C | 25% | 1008.5 hPa | 0 mm | 0 m/s | - | - |
| 1777976644 | 20.56° C | 22% | 1008.4 hPa | 0 mm | 0 m/s | - | - |
| 1777976344 | 19.44° C | 16% | 1008.5 hPa | 0 mm | 0 m/s | - | - |
| 1777976044 | 18.89° C | 20% | 1008.5 hPa | 0 mm | 0 m/s | - | - |
| 1777975744 | 18.33° C | 21% | 1008.4 hPa | 0 mm | 0 m/s | - | - |
* Rain latest hour (hover to see other rain measurements)
** Current wind speed in m/s (hover to see current wind gust speed)